createdAt,value
2019-01-11T00:00:39.066Z,16.87
2019-01-11T00:03:05.905Z,17.40
2019-01-11T00:05:32.749Z,16.40
2019-01-11T00:07:59.585Z,17.47
2019-01-11T00:10:26.426Z,16.20
2019-01-11T00:12:52.960Z,16.67
2019-01-11T00:15:19.803Z,17.17
2019-01-11T00:17:46.643Z,16.73
2019-01-11T00:20:13.196Z,17.07
2019-01-11T00:22:39.715Z,16.70
2019-01-11T00:25:06.554Z,16.17
2019-01-11T00:27:33.093Z,17.40
2019-01-11T00:29:59.628Z,16.70
2019-01-11T00:32:26.157Z,17.33
2019-01-11T00:34:53.406Z,16.90
2019-01-11T00:37:20.149Z,16.77
2019-01-11T00:39:46.681Z,17.97
2019-01-11T00:42:13.530Z,16.73
2019-01-11T00:44:40.059Z,17.57
2019-01-11T00:47:06.903Z,18.00
2019-01-11T00:49:33.435Z,16.90
2019-01-11T00:51:59.971Z,16.57
2019-01-11T00:54:26.811Z,17.27
2019-01-11T00:56:53.345Z,16.37
2019-01-11T00:59:20.189Z,16.37
2019-01-11T01:01:47.030Z,16.03
2019-01-11T01:04:13.564Z,17.13
2019-01-11T01:06:40.363Z,16.73
2019-01-11T01:09:07.255Z,15.57
2019-01-11T01:11:33.783Z,16.83
2019-01-11T01:14:00.623Z,16.37
2019-01-11T01:16:27.168Z,17.30
2019-01-11T01:18:54.000Z,17.23
2019-01-11T01:21:20.841Z,16.43
2019-01-11T01:23:47.686Z,16.77
2019-01-11T01:26:14.529Z,15.23
2019-01-11T01:28:41.366Z,15.53
2019-01-11T01:31:07.901Z,15.57
2019-01-11T01:33:34.435Z,15.67
2019-01-11T01:36:01.285Z,18.33
2019-01-11T01:38:28.103Z,19.00
2019-01-11T01:40:54.665Z,18.07
2019-01-11T01:43:21.187Z,16.30
2019-01-11T01:45:48.029Z,16.80
2019-01-11T01:48:14.870Z,17.13
2019-01-11T01:50:41.711Z,17.80
2019-01-11T01:53:08.248Z,16.40
2019-01-11T01:55:35.093Z,17.60
2019-01-11T01:58:01.622Z,16.77
2019-01-11T02:00:28.469Z,15.90
2019-01-11T02:02:55.004Z,16.30
2019-01-11T02:05:21.839Z,16.17
2019-01-11T02:07:48.681Z,16.73
2019-01-11T02:10:15.222Z,17.00
2019-01-11T02:12:41.752Z,16.17
2019-01-11T02:15:08.594Z,16.83
2019-01-11T02:17:35.142Z,16.70
2019-01-11T02:20:01.584Z,15.50
2019-01-11T02:22:28.503Z,15.87
2019-01-11T02:24:55.344Z,15.73
2019-01-11T02:27:22.189Z,16.07
2019-01-11T02:29:49.031Z,15.47
2019-01-11T02:32:15.562Z,15.33
2019-01-11T02:34:42.404Z,17.03
2019-01-11T02:37:08.937Z,16.23
2019-01-11T02:39:35.793Z,15.53
2019-01-11T02:42:03.544Z,16.57
2019-01-11T02:44:30.080Z,15.53
2019-01-11T02:46:56.615Z,15.83
2019-01-11T02:49:23.147Z,16.00
2019-01-11T02:51:49.704Z,16.20
2019-01-11T02:54:16.522Z,18.80
2019-01-11T02:56:43.058Z,19.10
2019-01-11T02:59:09.593Z,19.70
2019-01-11T03:01:36.131Z,19.50
2019-01-11T03:04:02.873Z,20.60
2019-01-11T03:06:29.813Z,20.27
2019-01-11T03:08:56.346Z,19.33
2019-01-11T03:11:22.881Z,20.57
2019-01-11T03:13:49.417Z,19.47
2019-01-11T03:16:15.948Z,21.10
2019-01-11T03:18:42.492Z,21.60
2019-01-11T03:21:09.028Z,20.40
2019-01-11T03:23:35.858Z,19.83
2019-01-11T03:26:02.681Z,20.63
2019-01-11T03:28:29.238Z,20.07
2019-01-11T03:30:56.078Z,19.53
2019-01-11T03:33:22.625Z,19.53
2019-01-11T03:35:49.456Z,20.57
2019-01-11T03:38:16.007Z,19.83
2019-01-11T03:40:42.524Z,20.13
2019-01-11T03:43:09.064Z,20.27
2019-01-11T03:45:35.607Z,20.67
2019-01-11T03:48:02.444Z,19.40
2019-01-11T03:50:28.966Z,19.77
2019-01-11T03:52:55.504Z,18.47
2019-01-11T03:55:22.361Z,19.00
2019-01-11T03:57:48.877Z,19.10
2019-01-11T04:00:15.723Z,19.40
2019-01-11T04:02:42.560Z,19.50
2019-01-11T04:05:09.402Z,19.40
2019-01-11T04:07:35.942Z,18.73
2019-01-11T04:10:02.471Z,18.70
2019-01-11T04:12:29.314Z,18.23
2019-01-11T04:14:56.157Z,18.67
2019-01-11T04:17:22.996Z,18.83
2019-01-11T04:19:49.531Z,18.83
2019-01-11T04:22:16.373Z,17.43
2019-01-11T04:24:43.217Z,17.50
2019-01-11T04:27:09.753Z,17.97
2019-01-11T04:29:36.283Z,17.97
2019-01-11T04:32:03.128Z,18.20
2019-01-11T04:34:30.487Z,18.17
2019-01-11T04:36:57.422Z,17.87
2019-01-11T04:39:24.264Z,17.57
2019-01-11T04:41:50.806Z,17.23
2019-01-11T04:44:17.338Z,18.67
2019-01-11T04:46:44.186Z,17.47
2019-01-11T04:49:11.020Z,16.80
2019-01-11T04:51:37.558Z,16.20
2019-01-11T04:54:04.087Z,16.77
2019-01-11T04:56:30.936Z,16.27
2019-01-11T04:58:57.770Z,16.50
2019-01-11T05:01:24.613Z,16.17
2019-01-11T05:03:51.459Z,17.67
2019-01-11T05:06:18.296Z,17.33
2019-01-11T05:08:44.910Z,16.80
2019-01-11T05:11:11.673Z,16.67
2019-01-11T05:13:38.217Z,15.83
2019-01-11T05:16:05.047Z,15.60
2019-01-11T05:18:31.601Z,16.93
2019-01-11T05:20:58.116Z,16.00
2019-01-11T05:23:24.956Z,16.23
2019-01-11T05:25:51.799Z,16.07
2019-01-11T05:28:18.332Z,16.63
2019-01-11T05:30:45.175Z,16.60
2019-01-11T05:33:11.710Z,15.43
2019-01-11T05:35:38.552Z,15.70
2019-01-11T05:38:05.085Z,15.00
2019-01-11T05:40:31.621Z,15.37
2019-01-11T05:42:58.461Z,14.80
2019-01-11T05:45:25.000Z,17.30
2019-01-11T05:47:51.532Z,15.50
2019-01-11T05:50:24.046Z,15.03
2019-01-11T05:52:46.442Z,14.93
2019-01-11T05:55:13.599Z,14.90
2019-01-11T05:57:40.434Z,15.20
2019-01-11T06:00:07.275Z,13.97
2019-01-11T06:02:33.823Z,13.40
2019-01-11T06:05:00.802Z,13.87
2019-01-11T06:07:27.493Z,14.27
2019-01-11T06:09:54.334Z,15.10
2019-01-11T06:12:20.870Z,15.13
2019-01-11T06:14:47.407Z,16.17
2019-01-11T06:17:13.940Z,16.47
2019-01-11T06:19:40.781Z,15.43
2019-01-11T06:22:07.315Z,15.67
2019-01-11T06:24:33.851Z,15.70
2019-01-11T06:27:00.384Z,14.73
2019-01-11T06:29:27.225Z,14.73
2019-01-11T06:31:53.763Z,14.87
2019-01-11T06:34:20.298Z,15.77
2019-01-11T06:36:47.135Z,15.20
2019-01-11T06:39:13.673Z,14.67
2019-01-11T06:41:40.204Z,14.37
2019-01-11T06:44:06.753Z,14.90
2019-01-11T06:46:33.275Z,14.90
2019-01-11T06:49:00.116Z,14.47
2019-01-11T06:51:26.961Z,14.83
2019-01-11T06:53:53.817Z,14.70
2019-01-11T06:56:20.332Z,13.90
2019-01-11T06:58:47.179Z,14.50
2019-01-11T07:01:13.709Z,14.67
2019-01-11T07:03:40.556Z,14.60
2019-01-11T07:06:07.086Z,14.73
2019-01-11T07:08:33.927Z,14.10
2019-01-11T07:11:00.776Z,14.43
2019-01-11T07:13:27.306Z,14.90
2019-01-11T07:15:54.144Z,15.10
2019-01-11T07:18:20.679Z,14.40
2019-01-11T07:20:47.583Z,14.57
2019-01-11T07:23:14.362Z,15.37
2019-01-11T07:25:40.900Z,14.43
2019-01-11T07:28:13.544Z,14.90
2019-01-11T07:30:35.815Z,14.60
2019-01-11T07:33:02.344Z,14.50
2019-01-11T07:35:28.878Z,14.30
2019-01-11T07:37:55.422Z,15.13
2019-01-11T07:40:22.254Z,14.50
2019-01-11T07:42:48.791Z,14.10
2019-01-11T07:45:15.325Z,14.00
2019-01-11T07:47:42.168Z,14.93
2019-01-11T07:50:09.021Z,14.77
2019-01-11T07:52:36.017Z,14.83
2019-01-11T07:55:02.694Z,15.40
2019-01-11T07:57:29.532Z,14.80
2019-01-11T07:59:56.376Z,15.87
2019-01-11T08:02:23.222Z,16.10
2019-01-11T08:04:50.063Z,15.30
2019-01-11T08:07:16.597Z,16.07
2019-01-11T08:09:44.287Z,15.47
2019-01-11T08:12:10.994Z,15.90
2019-01-11T08:14:37.732Z,14.87
2019-01-11T08:17:04.575Z,15.53
2019-01-11T08:19:31.109Z,15.57
2019-01-11T08:21:57.644Z,15.97
2019-01-11T08:24:24.181Z,16.93
2019-01-11T08:26:51.021Z,16.73
2019-01-11T08:29:17.862Z,16.40
2019-01-11T08:31:44.701Z,15.93
2019-01-11T08:34:11.282Z,16.07
2019-01-11T08:36:38.089Z,15.70
2019-01-11T08:39:04.918Z,16.67
2019-01-11T08:41:31.471Z,17.93
2019-01-11T08:43:58.297Z,15.37
2019-01-11T08:46:25.140Z,17.17
2019-01-11T08:48:51.978Z,17.03
2019-01-11T08:51:18.820Z,16.33
2019-01-11T08:53:45.662Z,16.67
2019-01-11T08:56:12.506Z,17.60
2019-01-11T08:58:39.038Z,16.87
2019-01-11T09:01:05.882Z,17.00
2019-01-11T09:03:32.423Z,17.00
2019-01-11T09:05:59.260Z,17.23
2019-01-11T09:08:25.792Z,17.40
2019-01-11T09:10:52.632Z,17.07
2019-01-11T09:13:19.167Z,17.70
2019-01-11T09:15:45.700Z,17.93
2019-01-11T09:18:12.545Z,16.93
2019-01-11T09:20:39.083Z,18.40
2019-01-11T09:23:05.920Z,18.40
2019-01-11T09:25:32.483Z,19.87
2019-01-11T09:27:59.382Z,17.57
2019-01-11T09:30:26.482Z,19.63
2019-01-11T09:32:53.288Z,19.13
2019-01-11T09:35:20.126Z,18.60
2019-01-11T09:37:46.976Z,18.37
2019-01-11T09:40:14.767Z,18.80
2019-01-11T09:42:41.961Z,19.23
2019-01-11T09:45:09.032Z,19.73
2019-01-11T09:47:35.882Z,19.87
2019-01-11T09:50:02.716Z,18.97
2019-01-11T09:52:29.562Z,18.70
2019-01-11T09:54:56.398Z,19.17
2019-01-11T09:57:23.240Z,19.30
2019-01-11T09:59:50.095Z,17.97
2019-01-11T10:02:16.921Z,20.03
2019-01-11T10:04:43.762Z,19.53
2019-01-11T10:07:10.297Z,19.40
2019-01-11T10:09:37.154Z,19.80
2019-01-11T10:12:03.981Z,21.87
2019-01-11T10:14:30.828Z,22.50
2019-01-11T10:16:57.358Z,20.83
2019-01-11T10:19:24.198Z,19.97
2019-01-11T10:21:52.543Z,22.50
2019-01-11T10:24:19.420Z,22.50
2019-01-11T10:26:46.262Z,21.07
2019-01-11T10:29:13.100Z,21.50
2019-01-11T10:31:39.635Z,21.17
2019-01-11T10:34:06.477Z,21.23
2019-01-11T10:36:33.329Z,22.90
2019-01-11T10:38:59.832Z,21.27
2019-01-11T10:41:26.394Z,22.87
2019-01-11T10:43:52.925Z,21.07
2019-01-11T10:46:19.457Z,21.10
2019-01-11T10:48:45.993Z,21.13
2019-01-11T10:51:12.529Z,21.97
2019-01-11T10:53:39.370Z,21.57
2019-01-11T10:56:06.208Z,22.10
2019-01-11T10:58:33.049Z,20.90
2019-01-11T11:00:59.587Z,20.63
2019-01-11T11:03:26.428Z,19.87
2019-01-11T11:05:53.277Z,20.90
2019-01-11T11:08:19.803Z,20.23
2019-01-11T11:10:46.649Z,21.07
2019-01-11T11:13:13.181Z,19.80
2019-01-11T11:15:39.714Z,20.63
2019-01-11T11:18:06.556Z,21.53
2019-01-11T11:20:33.091Z,21.77
2019-01-11T11:22:59.938Z,21.47
2019-01-11T11:25:26.621Z,20.80
2019-01-11T11:27:53.307Z,22.40
2019-01-11T11:30:20.169Z,21.50
2019-01-11T11:32:47.437Z,21.50
2019-01-11T11:35:14.143Z,21.10
2019-01-11T11:37:40.982Z,22.10
2019-01-11T11:40:07.517Z,23.13
2019-01-11T11:42:34.074Z,21.10
2019-01-11T11:45:00.595Z,21.70
2019-01-11T11:47:27.119Z,21.37
2019-01-11T11:49:53.968Z,22.97
2019-01-11T11:52:20.497Z,22.43
2019-01-11T11:54:47.033Z,22.90
2019-01-11T11:57:13.874Z,21.73
2019-01-11T11:59:40.411Z,21.83
2019-01-11T12:02:07.250Z,23.90
2019-01-11T12:04:33.781Z,22.87
2019-01-11T12:07:00.632Z,22.03
2019-01-11T12:09:27.466Z,22.87
2019-01-11T12:11:54.050Z,24.00
2019-01-11T12:14:20.841Z,26.77
2019-01-11T12:16:47.377Z,25.53
2019-01-11T12:19:13.910Z,24.80
2019-01-11T12:21:40.447Z,24.87
2019-01-11T12:24:06.978Z,25.17
2019-01-11T12:26:33.518Z,23.80
2019-01-11T12:29:00.354Z,23.20
2019-01-11T12:31:26.890Z,24.00
2019-01-11T12:33:53.737Z,23.13
2019-01-11T12:36:20.573Z,23.53
2019-01-11T12:38:47.414Z,22.40
2019-01-11T12:41:14.257Z,22.77
2019-01-11T12:43:40.793Z,22.50
2019-01-11T12:46:07.326Z,22.33
2019-01-11T12:48:33.867Z,23.37
2019-01-11T12:51:00.701Z,22.40
2019-01-11T12:53:27.554Z,24.87
2019-01-11T12:55:54.078Z,26.20
2019-01-11T12:58:20.918Z,22.70
2019-01-11T13:00:47.762Z,25.57
2019-01-11T13:03:14.298Z,25.70
2019-01-11T13:05:41.136Z,25.03
2019-01-11T13:08:07.671Z,26.30
2019-01-11T13:10:34.210Z,26.60
2019-01-11T13:13:00.744Z,25.43
2019-01-11T13:15:27.295Z,24.70
2019-01-11T13:17:53.810Z,27.40
2019-01-11T13:20:20.346Z,26.63
2019-01-11T13:22:46.878Z,26.07
2019-01-11T13:25:13.514Z,24.43
2019-01-11T13:27:40.240Z,24.37
2019-01-11T13:30:07.096Z,24.70
2019-01-11T13:32:33.630Z,25.53
2019-01-11T13:35:00.479Z,26.50
2019-01-11T13:37:27.952Z,27.63
2019-01-11T13:39:54.469Z,28.07
2019-01-11T13:42:20.996Z,26.73
2019-01-11T13:44:47.837Z,29.30
2019-01-11T13:47:14.679Z,26.57
2019-01-11T13:49:41.524Z,28.83
2019-01-11T13:52:08.081Z,27.73
2019-01-11T13:54:34.590Z,27.13
2019-01-11T13:57:01.434Z,28.47
2019-01-11T13:59:27.969Z,28.17
2019-01-11T14:01:54.808Z,26.80
2019-01-11T14:04:21.344Z,26.47
2019-01-11T14:06:48.184Z,25.13
2019-01-11T14:09:14.723Z,26.07
2019-01-11T14:11:41.259Z,27.73
2019-01-11T14:14:08.097Z,27.27
2019-01-11T14:16:34.938Z,25.93
2019-01-11T14:19:01.786Z,24.60
2019-01-11T14:21:28.398Z,27.60
2019-01-11T14:23:55.159Z,27.43
2019-01-11T14:26:22.003Z,26.53
2019-01-11T14:28:48.839Z,26.70
2019-01-11T14:31:15.687Z,26.70
2019-01-11T14:33:42.215Z,27.57
2019-01-11T14:36:09.075Z,28.10
2019-01-11T14:38:35.596Z,26.50
2019-01-11T14:41:02.432Z,26.93
2019-01-11T14:43:29.274Z,27.73
2019-01-11T14:45:56.124Z,26.83
2019-01-11T14:48:22.958Z,24.17
2019-01-11T14:50:49.799Z,27.77
2019-01-11T14:53:16.366Z,26.67
2019-01-11T14:55:43.175Z,27.67
2019-01-11T14:58:09.716Z,26.03
2019-01-11T15:00:36.249Z,25.97
2019-01-11T15:03:02.785Z,25.17
2019-01-11T15:05:29.311Z,27.77
2019-01-11T15:07:56.153Z,28.00
2019-01-11T15:10:22.688Z,28.70
2019-01-11T15:12:49.225Z,28.13
2019-01-11T15:15:15.758Z,27.90
2019-01-11T15:17:42.302Z,28.10
2019-01-11T15:20:08.930Z,27.53
2019-01-11T15:22:35.668Z,27.43
2019-01-11T15:25:02.526Z,27.83
2019-01-11T15:27:29.045Z,28.47
2019-01-11T15:29:55.533Z,28.43
2019-01-11T15:32:22.420Z,28.43
2019-01-11T15:34:49.552Z,28.43
2019-01-11T15:37:16.413Z,26.83
2019-01-11T15:39:43.253Z,26.57
2019-01-11T15:42:09.798Z,26.80
2019-01-11T15:44:36.610Z,27.30
2019-01-11T15:47:03.162Z,27.80
2019-01-11T15:49:30.004Z,26.60
2019-01-11T15:51:56.846Z,27.03
2019-01-11T15:54:23.379Z,26.53
2019-01-11T15:56:50.235Z,26.03
2019-01-11T15:59:17.070Z,26.40
2019-01-11T16:01:43.606Z,27.37
2019-01-11T16:04:10.442Z,27.83
2019-01-11T16:06:36.974Z,26.67
2019-01-11T16:09:03.512Z,28.30
2019-01-11T16:11:30.359Z,25.63
2019-01-11T16:13:56.885Z,27.03
2019-01-11T16:16:23.424Z,25.43
2019-01-11T16:18:50.263Z,26.00
2019-01-11T16:21:16.795Z,25.70
2019-01-11T16:23:43.637Z,26.77
2019-01-11T16:26:10.480Z,26.97
2019-01-11T16:28:37.331Z,26.73
2019-01-11T16:31:04.166Z,27.20
2019-01-11T16:33:30.697Z,26.93
2019-01-11T16:35:57.231Z,25.57
2019-01-11T16:38:24.073Z,25.53
2019-01-11T16:40:51.018Z,25.73
2019-01-11T16:43:17.756Z,25.20
2019-01-11T16:45:44.291Z,25.33
2019-01-11T16:48:11.135Z,25.37
2019-01-11T16:50:37.668Z,25.07
2019-01-11T16:53:04.205Z,25.93
2019-01-11T16:55:31.042Z,25.83
2019-01-11T16:57:57.885Z,26.27
2019-01-11T17:00:24.726Z,26.10
2019-01-11T17:02:51.568Z,27.37
2019-01-11T17:05:18.120Z,24.43
2019-01-11T17:07:44.638Z,26.37
2019-01-11T17:10:11.171Z,26.37
2019-01-11T17:12:41.709Z,25.07
2019-01-11T17:15:06.085Z,26.40
2019-01-11T17:17:32.925Z,24.77
2019-01-11T17:19:59.770Z,25.93
2019-01-11T17:22:26.301Z,26.27
2019-01-11T17:24:53.143Z,25.23
2019-01-11T17:27:19.682Z,25.47
2019-01-11T17:29:47.193Z,25.97
2019-01-11T17:32:14.639Z,25.37
2019-01-11T17:34:41.434Z,26.20
2019-01-11T17:37:07.974Z,24.87
2019-01-11T17:39:34.810Z,25.27
2019-01-11T17:42:01.653Z,24.20
2019-01-11T17:44:28.187Z,26.40
2019-01-11T17:46:54.721Z,24.30
2019-01-11T17:49:21.563Z,25.57
2019-01-11T17:51:48.427Z,22.90
2019-01-11T17:54:14.939Z,25.43
2019-01-11T17:56:41.780Z,24.10
2019-01-11T17:59:08.330Z,23.03
2019-01-11T18:01:35.153Z,23.93
2019-01-11T18:04:01.689Z,24.23
2019-01-11T18:06:28.534Z,24.37
2019-01-11T18:08:55.372Z,23.77
2019-01-11T18:11:21.906Z,23.87
2019-01-11T18:13:48.747Z,24.97
2019-01-11T18:16:15.289Z,24.23
2019-01-11T18:18:42.124Z,24.80
2019-01-11T18:21:08.659Z,25.90
2019-01-11T18:23:35.297Z,22.77
2019-01-11T18:26:02.038Z,24.07
2019-01-11T18:28:28.879Z,23.30
2019-01-11T18:30:55.730Z,24.80
2019-01-11T18:33:22.234Z,24.63
2019-01-11T18:35:49.142Z,25.53
2019-01-11T18:38:16.082Z,26.00
2019-01-11T18:40:42.784Z,25.53
2019-01-11T18:43:09.315Z,25.60
2019-01-11T18:45:36.155Z,25.57
2019-01-11T18:48:02.692Z,26.00
2019-01-11T18:50:29.237Z,24.83
2019-01-11T18:52:56.066Z,24.23
2019-01-11T18:55:22.604Z,24.40
2019-01-11T18:57:49.444Z,24.73
2019-01-11T19:00:15.978Z,26.13
2019-01-11T19:02:42.549Z,26.40
2019-01-11T19:05:09.352Z,26.53
2019-01-11T19:07:35.950Z,24.97
2019-01-11T19:10:02.734Z,25.00
2019-01-11T19:12:29.569Z,26.90
2019-01-11T19:14:56.745Z,24.47
2019-01-11T19:17:23.559Z,26.90
2019-01-11T19:19:50.093Z,27.90
2019-01-11T19:22:16.936Z,25.07
2019-01-11T19:24:43.777Z,26.63
2019-01-11T19:27:10.619Z,26.27
2019-01-11T19:29:37.153Z,26.57
2019-01-11T19:32:04.030Z,27.53
2019-01-11T19:34:30.538Z,26.33
2019-01-11T19:36:57.376Z,26.30
2019-01-11T19:39:24.215Z,24.27
2019-01-11T19:41:50.751Z,25.30
2019-01-11T19:44:17.592Z,25.60
2019-01-11T19:46:44.168Z,25.87
2019-01-11T19:49:10.966Z,26.67
2019-01-11T19:51:37.503Z,24.50
2019-01-11T19:54:04.034Z,24.07
2019-01-11T19:56:30.572Z,25.37
2019-01-11T19:58:57.412Z,22.73
2019-01-11T20:01:24.302Z,23.57
2019-01-11T20:03:51.105Z,22.17
2019-01-11T20:06:17.958Z,22.30
2019-01-11T20:08:44.777Z,22.00
2019-01-11T20:11:11.319Z,22.47
2019-01-11T20:13:38.160Z,21.67
2019-01-11T20:16:04.693Z,21.23
2019-01-11T20:18:31.230Z,21.90
2019-01-11T20:20:57.757Z,22.23
2019-01-11T20:23:24.601Z,20.47
2019-01-11T20:25:51.440Z,19.60
2019-01-11T20:28:17.978Z,21.93
2019-01-11T20:30:44.512Z,20.63
2019-01-11T20:33:11.353Z,19.23
2019-01-11T20:35:38.195Z,19.53
2019-01-11T20:38:04.732Z,20.03
2019-01-11T20:40:31.266Z,19.27
2019-01-11T20:42:58.105Z,20.23
2019-01-11T20:45:24.950Z,20.03
2019-01-11T20:47:51.787Z,18.70
2019-01-11T20:50:18.631Z,19.57
2019-01-11T20:52:45.471Z,18.37
2019-01-11T20:55:12.011Z,18.37
2019-01-11T20:57:38.542Z,17.47
2019-01-11T21:00:05.387Z,18.93
2019-01-11T21:02:31.917Z,18.90
2019-01-11T21:04:58.452Z,18.00
2019-01-11T21:07:24.985Z,17.90
2019-01-11T21:09:51.828Z,16.83
2019-01-11T21:12:18.360Z,17.33
2019-01-11T21:14:44.903Z,17.60
2019-01-11T21:17:11.739Z,16.87
2019-01-11T21:19:38.271Z,15.93
2019-01-11T21:22:05.112Z,17.80
2019-01-11T21:24:31.646Z,15.97
2019-01-11T21:26:58.180Z,15.57
2019-01-11T21:29:25.023Z,15.37
2019-01-11T21:31:51.866Z,16.03
2019-01-11T21:34:18.399Z,17.13
2019-01-11T21:36:44.934Z,15.97
2019-01-11T21:39:11.468Z,15.57
2019-01-11T21:41:38.310Z,15.37
2019-01-11T21:44:04.846Z,15.83
2019-01-11T21:46:31.691Z,15.20
2019-01-11T21:48:58.246Z,15.03
2019-01-11T21:51:25.061Z,14.30
2019-01-11T21:53:55.685Z,15.50
2019-01-11T21:56:19.973Z,14.67
2019-01-11T21:58:46.565Z,14.63
2019-01-11T22:01:13.350Z,14.33
2019-01-11T22:03:40.192Z,13.97
2019-01-11T22:06:07.037Z,14.27
2019-01-11T22:08:33.874Z,14.03
2019-01-11T22:11:00.717Z,13.53
2019-01-11T22:13:27.254Z,14.60
2019-01-11T22:15:53.785Z,13.00
2019-01-11T22:18:20.627Z,12.80
2019-01-11T22:20:47.478Z,13.17
2019-01-11T22:23:14.310Z,13.97
2019-01-11T22:25:40.845Z,13.20
2019-01-11T22:28:07.385Z,12.40
2019-01-11T22:30:33.915Z,12.53
2019-01-11T22:33:00.758Z,12.67
2019-01-11T22:35:27.292Z,12.83
2019-01-11T22:37:54.134Z,11.53
2019-01-11T22:40:20.667Z,11.70
2019-01-11T22:42:47.509Z,11.83
2019-01-11T22:45:14.349Z,12.50
2019-01-11T22:47:41.258Z,11.33
2019-01-11T22:50:08.038Z,12.30
2019-01-11T22:52:34.875Z,11.77
2019-01-11T22:55:01.717Z,10.90
2019-01-11T22:57:28.262Z,10.63
2019-01-11T22:59:54.785Z,11.40
2019-01-11T23:02:21.324Z,10.57
2019-01-11T23:04:48.169Z,10.43
2019-01-11T23:07:15.002Z,10.23
2019-01-11T23:09:41.897Z,10.03
2019-01-11T23:12:08.688Z,9.77
2019-01-11T23:14:35.527Z,9.60
2019-01-11T23:17:02.269Z,9.97
2019-01-11T23:19:29.218Z,9.03
2019-01-11T23:21:56.053Z,10.10
2019-01-11T23:24:22.585Z,9.07
2019-01-11T23:26:49.430Z,9.33
2019-01-11T23:29:16.270Z,9.23
2019-01-11T23:31:43.114Z,8.97
2019-01-11T23:34:09.648Z,8.73
2019-01-11T23:36:36.488Z,9.13
2019-01-11T23:39:03.332Z,8.33
2019-01-11T23:41:29.873Z,9.07
2019-01-11T23:43:56.708Z,8.20
2019-01-11T23:46:23.547Z,8.60
2019-01-11T23:48:50.389Z,7.97
2019-01-11T23:51:17.231Z,7.90
2019-01-11T23:53:44.076Z,7.90
2019-01-11T23:56:10.918Z,7.90
2019-01-11T23:58:37.448Z,7.27
